createdAt,value
2018-06-17T00:01:29.310Z,10.75
2018-06-17T00:03:57.679Z,6.75
2018-06-17T00:06:26.032Z,6.47
2018-06-17T00:08:54.406Z,7.20
2018-06-17T00:11:22.784Z,6.85
2018-06-17T00:13:51.152Z,6.83
2018-06-17T00:16:19.524Z,7.03
2018-06-17T00:18:47.894Z,6.15
2018-06-17T00:21:16.216Z,6.17
2018-06-17T00:23:44.560Z,6.97
2018-06-17T00:26:12.926Z,6.20
2018-06-17T00:28:41.340Z,6.45
2018-06-17T00:31:09.682Z,6.40
2018-06-17T00:33:38.029Z,6.42
2018-06-17T00:36:06.427Z,6.53
2018-06-17T00:38:34.810Z,6.70
2018-06-17T00:41:03.205Z,7.50
2018-06-17T00:43:31.550Z,9.25
2018-06-17T00:45:59.921Z,7.42
2018-06-17T00:48:28.297Z,7.22
2018-06-17T00:50:56.653Z,6.87
2018-06-17T00:53:25.011Z,8.85
2018-06-17T00:55:53.424Z,6.95
2018-06-17T00:58:21.781Z,7.50
2018-06-17T01:00:51.055Z,10.75
2018-06-17T01:03:19.394Z,7.65
2018-06-17T01:05:47.788Z,11.18
2018-06-17T01:08:16.159Z,7.58
2018-06-17T01:10:44.548Z,7.87
2018-06-17T01:13:13.572Z,7.75
2018-06-17T01:15:41.943Z,7.70
2018-06-17T01:18:10.288Z,9.73
2018-06-17T01:20:38.690Z,7.28
2018-06-17T01:23:07.085Z,8.45
2018-06-17T01:25:35.475Z,8.98
2018-06-17T01:28:03.852Z,10.28
2018-06-17T01:30:32.253Z,9.03
2018-06-17T01:33:00.647Z,8.55
2018-06-17T01:35:29.036Z,8.38
2018-06-17T01:37:57.415Z,7.35
2018-06-17T01:40:25.791Z,7.65
2018-06-17T01:42:54.149Z,7.30
2018-06-17T01:45:22.499Z,7.87
2018-06-17T01:47:50.857Z,7.75
2018-06-17T01:50:19.272Z,8.03
2018-06-17T01:52:47.660Z,8.38
2018-06-17T01:55:16.034Z,8.73
2018-06-17T01:57:44.414Z,8.45
2018-06-17T02:00:12.802Z,7.78
2018-06-17T02:02:41.807Z,8.78
2018-06-17T02:05:15.819Z,8.98
2018-06-17T02:07:49.703Z,8.20
2018-06-17T02:10:23.450Z,8.83
2018-06-17T02:12:51.904Z,8.83
2018-06-17T02:15:20.255Z,9.13
2018-06-17T02:17:48.652Z,7.85
2018-06-17T02:20:17.793Z,7.30
2018-06-17T02:22:46.167Z,8.83
2018-06-17T02:25:14.585Z,8.53
2018-06-17T02:27:43.561Z,10.05
2018-06-17T02:30:12.006Z,8.63
2018-06-17T02:32:40.360Z,8.60
2018-06-17T02:35:09.660Z,8.78
2018-06-17T02:37:38.046Z,8.23
2018-06-17T02:40:06.458Z,8.78
2018-06-17T02:42:34.869Z,8.10
2018-06-17T02:45:08.636Z,8.65
2018-06-17T02:47:42.503Z,8.65
2018-06-17T02:50:16.212Z,9.00
2018-06-17T02:52:50.037Z,7.83
2018-06-17T02:55:18.417Z,8.25
2018-06-17T02:57:46.776Z,9.35
2018-06-17T03:00:15.141Z,9.68
2018-06-17T03:02:43.533Z,8.15
2018-06-17T03:05:11.904Z,8.60
2018-06-17T03:07:40.426Z,9.40
2018-06-17T03:10:08.789Z,8.43
2018-06-17T03:12:37.124Z,8.73
2018-06-17T03:15:12.033Z,10.05
2018-06-17T03:17:40.392Z,10.08
2018-06-17T03:20:08.805Z,9.40
2018-06-17T03:22:37.164Z,8.95
2018-06-17T03:25:11.060Z,10.05
2018-06-17T03:27:44.904Z,9.28
2018-06-17T03:30:18.536Z,9.65
2018-06-17T03:32:52.423Z,8.80
2018-06-17T03:35:26.146Z,10.35
2018-06-17T03:37:54.567Z,10.50
2018-06-17T03:40:23.075Z,9.78
2018-06-17T03:42:51.449Z,9.93
2018-06-17T03:45:19.828Z,10.08
2018-06-17T03:47:48.237Z,9.45
2018-06-17T03:50:16.599Z,9.95
2018-06-17T03:52:44.976Z,9.63
2018-06-17T03:55:13.363Z,9.98
2018-06-17T03:57:41.741Z,9.63
2018-06-17T04:00:10.151Z,10.90
2018-06-17T04:02:38.507Z,8.58
2018-06-17T04:05:12.990Z,9.65
2018-06-17T04:07:41.467Z,9.63
2018-06-17T04:10:09.848Z,10.10
2018-06-17T04:12:38.192Z,9.35
2018-06-17T04:15:06.586Z,9.15
2018-06-17T04:17:34.954Z,8.15
2018-06-17T04:20:03.359Z,9.75
2018-06-17T04:22:31.709Z,9.60
2018-06-17T04:25:00.091Z,10.43
2018-06-17T04:27:28.469Z,10.25
2018-06-17T04:29:56.859Z,8.63
2018-06-17T04:32:25.253Z,9.35
2018-06-17T04:34:53.735Z,9.63
2018-06-17T04:37:22.113Z,10.40
2018-06-17T04:39:50.434Z,9.08
2018-06-17T04:42:18.818Z,9.13
2018-06-17T04:44:47.157Z,8.63
2018-06-17T04:47:15.563Z,8.78
2018-06-17T04:49:43.943Z,9.98
2018-06-17T04:52:12.320Z,8.68
2018-06-17T04:54:40.684Z,10.05
2018-06-17T04:57:09.084Z,9.35
2018-06-17T04:59:37.419Z,9.30
2018-06-17T05:02:06.031Z,8.98
2018-06-17T05:04:34.489Z,9.28
2018-06-17T05:07:03.490Z,7.85
2018-06-17T05:09:31.852Z,10.35
2018-06-17T05:12:00.267Z,8.40
2018-06-17T05:14:28.648Z,10.15
2018-06-17T05:16:57.113Z,10.35
2018-06-17T05:19:25.534Z,9.45
2018-06-17T05:21:53.953Z,10.03
2018-06-17T05:24:22.379Z,10.82
2018-06-17T05:26:50.755Z,9.88
2018-06-17T05:29:19.183Z,9.45
2018-06-17T05:31:47.671Z,11.03
2018-06-17T05:34:16.161Z,10.00
2018-06-17T05:36:44.611Z,9.15
2018-06-17T05:39:13.950Z,10.03
2018-06-17T05:41:42.380Z,10.13
2018-06-17T05:44:11.624Z,13.70
2018-06-17T05:46:40.080Z,8.28
2018-06-17T05:49:08.480Z,10.03
2018-06-17T05:51:36.950Z,9.60
2018-06-17T05:54:05.367Z,8.75
2018-06-17T05:56:33.816Z,8.93
2018-06-17T05:59:02.208Z,9.08
2018-06-17T06:01:30.602Z,7.60
2018-06-17T06:03:59.055Z,8.75
2018-06-17T06:06:27.441Z,10.20
2018-06-17T06:08:55.871Z,8.90
2018-06-17T06:11:24.257Z,8.58
2018-06-17T06:13:52.779Z,8.90
2018-06-17T06:16:21.156Z,9.73
2018-06-17T06:18:49.522Z,7.75
2018-06-17T06:21:17.942Z,8.60
2018-06-17T06:23:46.327Z,7.50
2018-06-17T06:26:14.698Z,7.05
2018-06-17T06:28:43.083Z,9.43
2018-06-17T06:31:11.429Z,8.68
2018-06-17T06:33:39.854Z,8.40
2018-06-17T06:36:08.306Z,9.03
2018-06-17T06:38:36.733Z,7.80
2018-06-17T06:41:05.148Z,7.58
2018-06-17T06:43:33.599Z,7.55
2018-06-17T06:46:01.993Z,7.97
2018-06-17T06:48:30.355Z,8.13
2018-06-17T06:50:58.856Z,6.62
2018-06-17T06:53:27.226Z,6.95
2018-06-17T06:55:55.694Z,6.20
2018-06-17T06:58:24.068Z,6.47
2018-06-17T07:00:52.456Z,6.95
2018-06-17T07:03:32.039Z,5.87
2018-06-17T07:06:11.664Z,12.53
2018-06-17T07:08:51.302Z,7.67
2018-06-17T07:11:19.724Z,9.03
2018-06-17T07:13:48.081Z,6.83
2018-06-17T07:16:27.893Z,6.83
2018-06-17T07:18:56.286Z,7.53
2018-06-17T07:21:24.675Z,9.13
2018-06-17T07:23:53.073Z,7.90
2018-06-17T07:26:48.367Z,7.97
2018-06-17T07:29:30.620Z,7.90
2018-06-17T07:31:58.991Z,6.55
2018-06-17T07:34:28.019Z,6.58
2018-06-17T07:36:56.395Z,6.72
2018-06-17T07:41:35.164Z,6.30
2018-06-17T07:44:03.641Z,6.25
2018-06-17T07:46:32.045Z,7.80
2018-06-17T07:49:39.344Z,6.28
2018-06-17T07:52:20.021Z,7.53
2018-06-17T07:54:48.580Z,8.33
2018-06-17T07:57:19.045Z,7.67
2018-06-17T07:59:47.426Z,6.62
2018-06-17T08:02:16.101Z,5.78
2018-06-17T08:04:44.520Z,7.55
2018-06-17T08:07:12.937Z,5.45
2018-06-17T08:09:41.356Z,6.75
2018-06-17T08:12:10.451Z,6.45
2018-06-17T08:14:38.947Z,5.80
2018-06-17T08:17:07.392Z,6.17
2018-06-17T08:19:35.795Z,6.90
2018-06-17T08:22:04.359Z,4.85
2018-06-17T08:24:33.226Z,11.57
2018-06-17T08:27:01.598Z,7.15
2018-06-17T08:29:29.928Z,6.42
2018-06-17T08:31:58.288Z,5.58
2018-06-17T08:34:26.714Z,5.47
2018-06-17T08:36:55.148Z,6.87
2018-06-17T08:39:24.518Z,4.30
2018-06-17T08:41:52.919Z,3.62
2018-06-17T08:44:21.699Z,3.95
2018-06-17T08:46:50.584Z,5.97
2018-06-17T08:49:19.340Z,6.55
2018-06-17T08:51:47.724Z,4.97
2018-06-17T08:54:16.125Z,4.55
2018-06-17T08:56:44.537Z,5.42
2018-06-17T08:59:12.930Z,3.95
2018-06-17T09:01:41.367Z,3.75
2018-06-17T09:04:09.808Z,3.67
2018-06-17T09:06:38.271Z,7.70
2018-06-17T09:09:12.068Z,4.58
2018-06-17T09:11:40.753Z,5.70
2018-06-17T09:14:09.128Z,5.85
2018-06-17T09:16:37.555Z,5.47
2018-06-17T09:19:05.996Z,3.40
2018-06-17T09:21:34.374Z,3.45
2018-06-17T09:24:02.812Z,4.75
2018-06-17T09:26:31.262Z,4.20
2018-06-17T09:28:59.672Z,3.50
2018-06-17T09:31:28.095Z,6.17
2018-06-17T09:33:56.454Z,2.70
2018-06-17T09:36:25.047Z,2.72
2018-06-17T09:38:53.444Z,3.47
2018-06-17T09:41:21.967Z,3.12
2018-06-17T09:43:50.515Z,3.35
2018-06-17T09:46:19.022Z,3.62
2018-06-17T09:48:47.470Z,5.50
2018-06-17T09:51:16.862Z,3.02
2018-06-17T09:53:45.254Z,3.75
2018-06-17T09:56:13.622Z,3.98
2018-06-17T09:58:42.005Z,4.08
2018-06-17T10:01:10.359Z,3.22
2018-06-17T10:03:38.760Z,2.70
2018-06-17T10:06:07.153Z,4.60
2018-06-17T10:08:35.527Z,2.60
2018-06-17T10:11:04.938Z,3.83
2018-06-17T10:13:34.670Z,3.83
2018-06-17T10:16:03.280Z,4.17
2018-06-17T10:18:32.156Z,2.95
2018-06-17T10:21:00.568Z,4.00
2018-06-17T10:23:28.967Z,2.17
2018-06-17T10:25:57.399Z,2.65
2018-06-17T10:28:27.031Z,6.03
2018-06-17T10:30:57.199Z,2.92
2018-06-17T10:33:25.761Z,5.92
2018-06-17T10:35:54.152Z,3.77
2018-06-17T10:38:22.944Z,2.72
2018-06-17T10:40:51.338Z,3.55
2018-06-17T10:43:22.167Z,3.77
2018-06-17T10:45:57.191Z,3.95
2018-06-17T10:48:25.548Z,3.15
2018-06-17T10:50:54.362Z,3.40
2018-06-17T10:53:22.753Z,3.55
2018-06-17T10:55:52.108Z,4.42
2018-06-17T10:58:20.422Z,3.77
2018-06-17T11:00:48.894Z,4.55
2018-06-17T11:03:17.264Z,4.05
2018-06-17T11:05:45.651Z,4.50
2018-06-17T11:08:14.026Z,3.95
2018-06-17T11:10:42.399Z,6.75
2018-06-17T11:13:10.851Z,15.48
2018-06-17T11:15:39.284Z,6.25
2018-06-17T11:18:07.677Z,3.47
2018-06-17T11:20:36.099Z,7.15
2018-06-17T11:23:04.640Z,5.97
2018-06-17T11:25:33.052Z,3.98
2018-06-17T11:28:01.398Z,3.47
2018-06-17T11:30:30.072Z,4.33
2018-06-17T11:32:58.439Z,7.83
2018-06-17T11:35:26.864Z,5.05
2018-06-17T11:37:55.267Z,5.67
2018-06-17T11:40:23.648Z,7.30
2018-06-17T11:42:52.027Z,7.60
2018-06-17T11:45:20.419Z,7.28
2018-06-17T11:47:48.808Z,7.67
2018-06-17T11:50:17.174Z,8.55
2018-06-17T11:52:45.614Z,5.03
2018-06-17T11:55:14.003Z,8.83
2018-06-17T11:57:42.505Z,3.85
2018-06-17T12:00:11.083Z,6.45
2018-06-17T12:02:39.510Z,5.03
2018-06-17T12:05:07.868Z,4.00
2018-06-17T12:07:36.582Z,8.50
2018-06-17T12:10:05.161Z,5.83
2018-06-17T12:12:33.539Z,3.65
2018-06-17T12:15:01.981Z,6.37
2018-06-17T12:17:30.382Z,8.35
2018-06-17T12:19:58.752Z,3.50
2018-06-17T12:22:27.555Z,3.35
2018-06-17T12:24:55.912Z,5.25
2018-06-17T12:27:24.314Z,5.05
2018-06-17T12:29:52.683Z,5.87
2018-06-17T12:32:21.055Z,5.03
2018-06-17T12:34:50.362Z,7.15
2018-06-17T12:37:18.802Z,4.03
2018-06-17T12:39:47.208Z,7.28
2018-06-17T12:42:15.647Z,6.22
2018-06-17T12:44:44.078Z,6.12
2018-06-17T12:47:12.611Z,2.90
2018-06-17T12:49:41.007Z,5.92
2018-06-17T12:52:09.454Z,5.75
2018-06-17T12:54:38.140Z,5.03
2018-06-17T12:57:06.601Z,10.18
2018-06-17T12:59:35.032Z,6.10
2018-06-17T13:02:03.519Z,6.67
2018-06-17T13:04:31.989Z,4.80
2018-06-17T13:07:00.374Z,3.58
2018-06-17T13:09:28.819Z,8.28
2018-06-17T13:11:57.193Z,7.53
2018-06-17T13:14:25.808Z,6.87
2018-06-17T13:16:54.246Z,5.72
2018-06-17T13:19:22.374Z,4.37
2018-06-17T13:21:50.747Z,7.87
2018-06-17T13:24:19.116Z,4.08
2018-06-17T13:26:48.157Z,4.05
2018-06-17T13:29:16.880Z,6.12
2018-06-17T13:31:46.288Z,8.58
2018-06-17T13:34:14.872Z,6.08
2018-06-17T13:36:43.406Z,3.58
2018-06-17T13:39:11.857Z,4.60
2018-06-17T13:41:40.225Z,10.00
2018-06-17T13:44:08.703Z,4.60
2018-06-17T13:46:37.167Z,3.50
2018-06-17T13:49:05.669Z,8.08
2018-06-17T13:51:34.315Z,3.62
2018-06-17T13:54:02.434Z,3.45
2018-06-17T13:56:30.810Z,2.92
2018-06-17T13:58:59.241Z,3.92
2018-06-17T14:01:28.636Z,2.75
2018-06-17T14:03:57.040Z,4.60
2018-06-17T14:06:25.441Z,5.95
2018-06-17T14:08:53.898Z,3.27
2018-06-17T14:11:22.255Z,3.02
2018-06-17T14:13:50.758Z,2.60
2018-06-17T14:16:19.179Z,3.83
2018-06-17T14:18:47.803Z,3.80
2018-06-17T14:21:16.211Z,5.35
2018-06-17T14:23:45.224Z,2.12
2018-06-17T14:26:13.906Z,2.60
2018-06-17T14:28:42.267Z,2.12
2018-06-17T14:31:11.232Z,2.35
2018-06-17T14:33:41.854Z,1.77
2018-06-17T14:36:10.529Z,3.52
2018-06-17T14:38:38.940Z,5.97
2018-06-17T14:41:12.870Z,2.30
2018-06-17T14:43:46.856Z,5.33
2018-06-17T14:46:20.557Z,3.12
2018-06-17T14:48:54.228Z,1.92
2018-06-17T14:51:28.140Z,1.85
2018-06-17T14:53:56.585Z,3.87
2018-06-17T14:56:25.038Z,2.65
2018-06-17T14:58:53.431Z,1.52
2018-06-17T15:01:21.865Z,2.72
2018-06-17T15:03:50.984Z,3.27
2018-06-17T15:06:19.383Z,1.90
2018-06-17T15:08:47.878Z,1.02
2018-06-17T15:11:16.446Z,1.47
2018-06-17T15:13:44.854Z,1.82
2018-06-17T15:16:13.592Z,2.50
2018-06-17T15:18:42.040Z,2.25
2018-06-17T15:21:10.482Z,2.58
2018-06-17T15:23:39.610Z,0.70
2018-06-17T15:26:08.099Z,3.22
2018-06-17T15:28:36.483Z,1.50
2018-06-17T15:31:10.232Z,3.15
2018-06-17T15:33:43.900Z,1.35
2018-06-17T15:36:17.775Z,1.52
2018-06-17T15:38:50.877Z,1.17
2018-06-17T15:41:25.207Z,0.30
2018-06-17T15:43:54.619Z,0.60
2018-06-17T15:46:23.025Z,0.90
2018-06-17T15:48:51.630Z,0.98
2018-06-17T15:51:20.100Z,0.55
2018-06-17T15:53:49.078Z,3.20
2018-06-17T15:56:17.529Z,4.62
2018-06-17T15:58:45.905Z,1.25
2018-06-17T16:01:20.663Z,2.55
2018-06-17T16:03:49.015Z,2.10
2018-06-17T16:06:17.417Z,2.25
2018-06-17T16:08:45.786Z,1.98
2018-06-17T16:11:14.173Z,0.20
2018-06-17T16:13:48.183Z,1.70
2018-06-17T16:16:21.990Z,7.10
2018-06-17T16:18:55.889Z,2.55
2018-06-17T16:21:24.268Z,10.78
2018-06-17T16:23:52.597Z,8.23
2018-06-17T16:26:20.964Z,9.05
2018-06-17T16:28:49.382Z,12.25
2018-06-17T16:31:17.875Z,38.30
2018-06-17T16:33:46.226Z,23.83
2018-06-17T16:36:14.638Z,11.30
2018-06-17T16:38:43.032Z,9.20
2018-06-17T16:41:11.429Z,19.75
2018-06-17T16:43:39.818Z,30.82
2018-06-17T16:46:08.252Z,18.82
2018-06-17T16:48:36.622Z,7.22
2018-06-17T16:51:10.237Z,4.55
2018-06-17T16:53:43.983Z,2.47
2018-06-17T16:56:17.779Z,1.90
2018-06-17T16:58:51.547Z,2.40
2018-06-17T17:01:19.950Z,3.42
2018-06-17T17:03:48.357Z,0.50
2018-06-17T17:06:16.797Z,3.22
2018-06-17T17:08:45.139Z,1.35
2018-06-17T17:11:13.599Z,2.25
2018-06-17T17:13:41.993Z,1.85
2018-06-17T17:16:10.376Z,3.52
2018-06-17T17:18:38.934Z,2.05
2018-06-17T17:21:07.324Z,1.37
2018-06-17T17:23:35.741Z,0.72
2018-06-17T17:26:04.125Z,3.02
2018-06-17T17:28:32.578Z,2.15
2018-06-17T17:31:01.063Z,2.55
2018-06-17T17:33:34.637Z,0.82
2018-06-17T17:36:08.541Z,0.70
2018-06-17T17:38:42.283Z,0.70
2018-06-17T17:41:10.642Z,0.60
2018-06-17T17:43:39.071Z,1.80
2018-06-17T17:47:16.773Z,3.20
2018-06-17T17:49:45.151Z,3.52
2018-06-17T17:52:13.544Z,2.30
2018-06-17T17:54:41.935Z,1.15
2018-06-17T17:57:10.332Z,1.05
2018-06-17T17:59:38.691Z,4.12
2018-06-17T18:02:07.228Z,0.72
2018-06-17T18:04:35.607Z,1.92
2018-06-17T18:07:04.128Z,0.50
2018-06-17T18:09:33.105Z,1.82
2018-06-17T18:12:01.596Z,1.07
2018-06-17T18:14:30.165Z,1.05
2018-06-17T18:16:58.872Z,2.05
2018-06-17T18:19:27.495Z,2.37
2018-06-17T18:21:56.074Z,4.22
2018-06-17T18:24:24.553Z,1.65
2018-06-17T18:26:58.514Z,3.15
2018-06-17T18:29:32.357Z,2.08
2018-06-17T18:32:06.091Z,1.85
2018-06-17T18:34:39.931Z,1.22
2018-06-17T18:37:08.445Z,0.88
2018-06-17T18:39:36.808Z,1.15
2018-06-17T18:42:05.252Z,3.08
2018-06-17T18:44:33.665Z,1.57
2018-06-17T18:47:02.118Z,2.30
2018-06-17T18:49:30.546Z,3.52
2018-06-17T18:51:58.903Z,3.15
2018-06-17T18:54:27.384Z,3.92
2018-06-17T18:56:55.867Z,1.52
2018-06-17T18:59:24.267Z,2.55
2018-06-17T19:01:52.696Z,4.58
2018-06-17T19:04:21.487Z,1.30
2018-06-17T19:06:49.859Z,1.20
2018-06-17T19:09:23.432Z,2.42
2018-06-17T19:11:57.199Z,1.02
2018-06-17T19:14:30.890Z,1.55
2018-06-17T19:17:04.541Z,2.25
2018-06-17T19:19:32.919Z,1.75
2018-06-17T19:22:01.262Z,2.35
2018-06-17T19:24:29.757Z,3.87
2018-06-17T19:26:58.128Z,1.90
2018-06-17T19:29:26.486Z,1.45
2018-06-17T19:31:54.907Z,1.62
2018-06-17T19:34:24.293Z,2.90
2018-06-17T19:36:52.724Z,5.05
2018-06-17T19:39:20.827Z,3.83
2018-06-17T19:41:49.195Z,1.30
2018-06-17T19:44:17.576Z,1.02
2018-06-17T19:46:45.973Z,3.90
2018-06-17T19:49:14.339Z,1.75
2018-06-17T19:51:48.168Z,1.30
2018-06-17T19:54:22.120Z,7.80
2018-06-17T19:56:55.880Z,2.27
2018-06-17T19:59:29.766Z,1.87
2018-06-17T20:01:58.183Z,2.77
2018-06-17T20:04:26.543Z,2.98
2018-06-17T20:06:54.980Z,2.30
2018-06-17T20:09:23.365Z,3.20
2018-06-17T20:11:51.780Z,2.17
2018-06-17T20:14:20.165Z,5.95
2018-06-17T20:16:48.587Z,3.17
2018-06-17T20:19:16.967Z,2.15
2018-06-17T20:21:45.362Z,1.65
2018-06-17T20:24:13.773Z,5.78
2018-06-17T20:26:42.263Z,2.25
2018-06-17T20:29:10.691Z,1.12
2018-06-17T20:32:48.094Z,2.37
2018-06-17T20:35:21.961Z,5.50
2018-06-17T20:37:55.712Z,2.55
2018-06-17T20:40:29.398Z,2.87
2018-06-17T20:43:03.299Z,1.85
2018-06-17T20:45:31.701Z,0.80
2018-06-17T20:48:00.089Z,4.60
2018-06-17T20:50:28.442Z,3.87
2018-06-17T20:52:56.884Z,3.35
2018-06-17T20:55:25.262Z,2.83
2018-06-17T20:57:53.703Z,1.67
2018-06-17T21:00:22.057Z,3.22
2018-06-17T21:02:50.431Z,1.82
2018-06-17T21:05:19.000Z,4.67
2018-06-17T21:07:47.409Z,1.77
2018-06-17T21:10:16.447Z,6.05
2018-06-17T21:12:44.831Z,3.90
2018-06-17T21:15:17.291Z,1.90
2018-06-17T21:17:46.516Z,3.10
2018-06-17T21:20:20.330Z,1.87
2018-06-17T21:22:54.315Z,8.10
2018-06-17T21:25:27.988Z,3.47
2018-06-17T21:27:57.593Z,7.80
2018-06-17T21:30:26.059Z,1.90
2018-06-17T21:32:54.451Z,4.55
2018-06-17T21:35:22.857Z,2.70
2018-06-17T21:37:51.204Z,3.67
2018-06-17T21:40:19.658Z,1.25
2018-06-17T21:42:48.639Z,1.62
2018-06-17T21:45:17.030Z,1.57
2018-06-17T21:47:45.423Z,2.50
2018-06-17T21:50:13.800Z,1.82
2018-06-17T21:52:42.216Z,3.00
2018-06-17T21:55:10.664Z,4.12
2018-06-17T21:57:39.897Z,4.85
2018-06-17T22:00:09.475Z,1.77
2018-06-17T22:02:45.011Z,4.53
2018-06-17T22:05:13.900Z,2.00
2018-06-17T22:07:48.203Z,2.80
2018-06-17T22:10:21.966Z,6.70
2018-06-17T22:12:55.722Z,2.95
2018-06-17T22:15:29.462Z,2.52
2018-06-17T22:17:57.851Z,2.95
2018-06-17T22:20:26.200Z,1.95
2018-06-17T22:22:54.613Z,2.10
2018-06-17T22:25:22.978Z,3.00
2018-06-17T22:27:51.368Z,1.70
2018-06-17T22:30:19.717Z,1.35
2018-06-17T22:32:48.161Z,2.33
2018-06-17T22:35:16.478Z,2.15
2018-06-17T22:37:44.837Z,2.87
2018-06-17T22:40:13.244Z,2.80
2018-06-17T22:42:41.628Z,3.55
2018-06-17T22:45:09.976Z,1.67
2018-06-17T22:47:43.836Z,3.20
2018-06-17T22:50:12.373Z,1.80
2018-06-17T22:52:52.322Z,2.92
2018-06-17T22:55:20.759Z,2.00
2018-06-17T22:57:54.421Z,3.77
2018-06-17T23:00:28.106Z,3.72
2018-06-17T23:03:02.373Z,2.47
2018-06-17T23:05:36.048Z,2.85
2018-06-17T23:08:09.889Z,2.02
2018-06-17T23:10:38.293Z,2.75
2018-06-17T23:13:06.693Z,1.40
2018-06-17T23:15:35.053Z,1.80
2018-06-17T23:18:03.431Z,2.47
2018-06-17T23:20:32.405Z,3.97
2018-06-17T23:23:00.802Z,3.53
2018-06-17T23:25:29.201Z,3.50
2018-06-17T23:27:57.575Z,4.20
2018-06-17T23:30:25.935Z,1.15
2018-06-17T23:32:54.383Z,1.82
2018-06-17T23:35:22.783Z,4.72
2018-06-17T23:37:51.161Z,1.60
2018-06-17T23:40:19.260Z,2.58
2018-06-17T23:42:48.133Z,6.15
2018-06-17T23:45:16.546Z,1.62
2018-06-17T23:47:50.438Z,4.30
2018-06-17T23:50:24.063Z,1.50
2018-06-17T23:52:57.694Z,2.02
2018-06-17T23:55:31.541Z,1.95
2018-06-17T23:57:59.923Z,1.22
